Time;durP1;ratioP1;P1;durP2;ratioP2;P2;SDS_P1;SDS_P2;PMS_P1;PMS_P2;Temp;Humidity;BMP_temperature;BMP_pressure;BME280_temperature;BME280_humidity;BME280_pressure;Samples;Min_cycle;Max_cycle;Signal;HPM_P1;HPM_P2
2021/06/03 00:02:13;;;;;;;;;;;;;;;;;;2132264;59;1904;-69
2021/06/03 00:04:39;;;;;;;;;;;;;;;;;;2129645;67;1196;-69
2021/06/03 00:07:04;;;;;;;;;;;;;;;;;;2133859;59;2236;-68
2021/06/03 00:09:29;;;;;;;;;;;;;;;;;;2130318;67;1339;-69
2021/06/03 00:11:55;;;;;;;;;;;;;;;;;;2125431;59;1398;-68
2021/06/03 00:14:20;;;;;;;;;;;;;;;;;;2129517;67;1181;-68
2021/06/03 00:16:45;;;;;;;;;;;;;;;;;;2131390;59;1875;-69
2021/06/03 00:19:11;;;;;;;;;;;;;;;;;;2129994;67;1167;-69
2021/06/03 00:21:37;;;;;;;;;;;;;;;;;;2129367;67;1183;-69
2021/06/03 00:24:03;;;;;;;;;;;;;;;;;;2129556;59;2794;-69
2021/06/03 00:26:29;;;;;;;;;;;;;;;;;;2129018;59;2286;-68
2021/06/03 00:28:54;;;;;;;;;;;;;;;;;;2132220;59;1318;-68
2021/06/03 00:31:19;;;;;;;;;;;;;;;;;;2126128;67;1600;-69
2021/06/03 00:33:45;;;;;;;;;;;;;;;;;;2130552;59;1291;-69
2021/06/03 00:36:10;;;;;;;;;;;;;;;;;;2128358;67;1204;-68
2021/06/03 00:38:36;;;;;;;;;;;;;;;;;;2129912;59;1078;-69
2021/06/03 00:41:02;;;;;;;;;;;;;;;;;;2129741;67;1186;-69
2021/06/03 00:43:27;;;;;;;;;;;;;;;;;;2129671;67;1965;-69
2021/06/03 00:45:52;;;;;;;;;;;;;;;;;;2129436;67;1112;-69
2021/06/03 00:48:17;;;;;;;;;;;;;;;;;;2131151;66;1171;-69
2021/06/03 00:50:45;;;;;;;;;;;;;;;;;;2128850;67;1253;-68
2021/06/03 00:53:11;;;;;;;;;;;;;;;;;;2133796;66;1218;-68
2021/06/03 00:55:37;;;;;;;;;;;;;;;;;;2130268;67;1203;-69
2021/06/03 00:58:03;;;;;;;;;;;;;;;;;;2128010;66;1194;-68
2021/06/03 01:00:29;;;;;;;;;;;;;;;;;;2126580;67;1250;-69
2021/06/03 01:02:54;;;;;;;;;;;;;;;;;;2129919;67;1937;-69
2021/06/03 01:05:22;;;;;;;;;;;;;;;;;;2130340;59;1074;-69
2021/06/03 01:07:49;;;;;;;;;;;;;;;;;;2130398;59;2015;-69
2021/06/03 01:10:20;;;;;;;;;;;;;;;;;;2130326;67;1135;-69
2021/06/03 01:12:50;;;;;;;;;;;;;;;;;;2129956;67;1107;-69
2021/06/03 01:15:16;;;;;;;;;;;;;;;;;;2135634;59;1507;-69
2021/06/03 01:17:41;;;;;;;;;;;;;;;;;;2130521;67;1197;-68
2021/06/03 01:20:07;;;;;;;;;;;;;;;;;;2130870;67;1231;-69
2021/06/03 01:23:02;;;;;;;;;;;;;;;;;;2130422;67;1982;-69
2021/06/03 01:25:27;;;;;;;;;;;;;;;;;;2120316;59;2248;-69
2021/06/03 01:27:53;;;;;;;;;;;;;;;;;;2129669;59;2204;-69
2021/06/03 01:30:21;;;;;;;;;;;;;;;;;;2127286;67;1502;-69
2021/06/03 01:32:51;;;;;;;;;;;;;;;;;;2130424;67;1277;-69
2021/06/03 01:35:21;;;;;;;;;;;;;;;;;;2132582;66;1144;-68
2021/06/03 01:37:48;;;;;;;;;;;;;;;;;;2131738;59;1220;-69
2021/06/03 01:40:14;;;;;;;;;;;;;;;;;;2130966;67;1221;-68
2021/06/03 01:42:39;;;;;;;;;;;;;;;;;;2129845;67;1979;-69
2021/06/03 01:45:05;;;;;;;;;;;;;;;;;;2130051;67;1313;-69
2021/06/03 01:47:31;;;;;;;;;;;;;;;;;;2130739;59;1250;-69
2021/06/03 01:49:57;;;;;;;;;;;;;;;;;;2129730;67;1175;-69
2021/06/03 01:52:23;;;;;;;;;;;;;;;;;;2133383;66;1075;-68
2021/06/03 01:54:48;;;;;;;;;;;;;;;;;;2130761;66;1011;-68
2021/06/03 01:57:13;;;;;;;;;;;;;;;;;;2129940;67;1336;-68
2021/06/03 01:59:39;;;;;;;;;;;;;;;;;;2128854;67;1083;-68
2021/06/03 02:02:04;;;;;;;;;;;;;;;;;;2128679;67;1158;-68
2021/06/03 02:04:29;;;;;;;;;;;;;;;;;;2129738;67;1925;-69
2021/06/03 02:06:54;;;;;;;;;;;;;;;;;;2132525;66;1345;-69
2021/06/03 02:09:20;;;;;;;;;;;;;;;;;;2130537;67;2302;-68
2021/06/03 02:11:46;;;;;;;;;;;;;;;;;;2130226;67;1099;-69
2021/06/03 02:14:16;;;;;;;;;;;;;;;;;;2130655;66;1231;-68
2021/06/03 02:16:49;;;;;;;;;;;;;;;;;;2129131;59;1290;-67
2021/06/03 02:19:17;;;;;;;;;;;;;;;;;;2130966;66;1132;-68
2021/06/03 02:21:43;;;;;;;;;;;;;;;;;;2134361;66;1394;-68
2021/06/03 02:24:08;;;;;;;;;;;;;;;;;;2128979;59;1983;-68
2021/06/03 02:26:34;;;;;;;;;;;;;;;;;;2130187;59;2672;-68
2021/06/03 02:29:00;;;;;;;;;;;;;;;;;;2129498;59;2299;-69
2021/06/03 02:31:26;;;;;;;;;;;;;;;;;;2127809;67;1305;-69
2021/06/03 02:33:52;;;;;;;;;;;;;;;;;;2131303;59;1509;-69
2021/06/03 02:36:17;;;;;;;;;;;;;;;;;;2131841;58;1202;-69
2021/06/03 02:38:42;;;;;;;;;;;;;;;;;;2133013;66;1245;-69
2021/06/03 02:41:08;;;;;;;;;;;;;;;;;;2130642;66;1237;-68
2021/06/03 02:43:35;;;;;;;;;;;;;;;;;;2133228;66;1969;-68
2021/06/03 02:46:00;;;;;;;;;;;;;;;;;;2129212;67;1079;-69
2021/06/03 02:48:26;;;;;;;;;;;;;;;;;;2130043;59;1780;-69
2021/06/03 02:50:51;;;;;;;;;;;;;;;;;;2129839;59;1663;-68
2021/06/03 02:53:16;;;;;;;;;;;;;;;;;;2131497;59;1856;-68
2021/06/03 02:55:42;;;;;;;;;;;;;;;;;;2130907;59;1742;-69
2021/06/03 02:58:08;;;;;;;;;;;;;;;;;;2129548;67;1186;-70
2021/06/03 03:00:35;;;;;;;;;;;;;;;;;;2127139;67;1975;-69
2021/06/03 03:03:01;;;;;;;;;;;;;;;;;;2130678;67;1928;-69
2021/06/03 03:05:26;;;;;;;;;;;;;;;;;;2130793;59;2041;-69
2021/06/03 03:07:52;;;;;;;;;;;;;;;;;;2130333;59;2077;-70
2021/06/03 03:10:19;;;;;;;;;;;;;;;;;;2129379;67;1744;-69
2021/06/03 03:12:45;;;;;;;;;;;;;;;;;;2127305;66;1587;-69
2021/06/03 03:15:11;;;;;;;;;;;;;;;;;;2128975;59;2333;-69
2021/06/03 03:17:36;;;;;;;;;;;;;;;;;;2130659;66;1528;-69
2021/06/03 03:20:01;;;;;;;;;;;;;;;;;;2130058;66;1474;-68
2021/06/03 03:22:27;;;;;;;;;;;;;;;;;;2126941;67;1951;-70
2021/06/03 03:24:52;;;;;;;;;;;;;;;;;;2130338;67;1755;-70
2021/06/03 03:27:17;;;;;;;;;;;;;;;;;;2130089;59;3312;-70
2021/06/03 03:29:42;;;;;;;;;;;;;;;;;;2128660;59;3384;-70
2021/06/03 03:32:08;;;;;;;;;;;;;;;;;;2127322;67;1458;-68
2021/06/03 03:34:33;;;;;;;;;;;;;;;;;;2132131;66;1421;-69
2021/06/03 03:36:58;;;;;;;;;;;;;;;;;;2131302;59;1493;-70
2021/06/03 03:39:23;;;;;;;;;;;;;;;;;;2131313;67;1788;-70
2021/06/03 03:41:49;;;;;;;;;;;;;;;;;;2129051;67;1495;-68
2021/06/03 03:44:14;;;;;;;;;;;;;;;;;;2129021;67;1939;-69
2021/06/03 03:46:39;;;;;;;;;;;;;;;;;;2131114;66;1536;-70
2021/06/03 03:49:04;;;;;;;;;;;;;;;;;;2129836;67;1588;-69
2021/06/03 03:51:30;;;;;;;;;;;;;;;;;;2126559;67;1652;-68
2021/06/03 03:53:55;;;;;;;;;;;;;;;;;;2129435;67;1540;-70
2021/06/03 03:56:20;;;;;;;;;;;;;;;;;;2130930;67;1479;-69
2021/06/03 03:58:48;;;;;;;;;;;;;;;;;;2129442;67;1568;-70
2021/06/03 04:01:13;;;;;;;;;;;;;;;;;;2127781;59;1580;-69
2021/06/03 04:03:39;;;;;;;;;;;;;;;;;;2131352;67;1996;-69
2021/06/03 04:06:05;;;;;;;;;;;;;;;;;;2133625;66;1440;-70
2021/06/03 04:08:30;;;;;;;;;;;;;;;;;;2133134;59;2536;-69
2021/06/03 04:10:55;;;;;;;;;;;;;;;;;;2129451;67;1527;-68
2021/06/03 04:13:20;;;;;;;;;;;;;;;;;;2129576;59;1916;-68
2021/06/03 04:15:46;;;;;;;;;;;;;;;;;;2130662;66;1539;-69
2021/06/03 04:18:11;;;;;;;;;;;;;;;;;;2129773;67;1666;-69
2021/06/03 04:20:36;;;;;;;;;;;;;;;;;;2125457;67;1510;-69
2021/06/03 04:23:02;;;;;;;;;;;;;;;;;;2131134;67;1937;-74
2021/06/03 04:25:27;;;;;;;;;;;;;;;;;;2129684;67;1898;-70
2021/06/03 04:27:53;;;;;;;;;;;;;;;;;;2132115;59;2996;-70
2021/06/03 04:30:19;;;;;;;;;;;;;;;;;;2127787;59;3631;-70
2021/06/03 04:32:44;;;;;;;;;;;;;;;;;;2130036;66;1558;-69
2021/06/03 04:35:10;;;;;;;;;;;;;;;;;;2130731;59;1601;-71
2021/06/03 04:37:35;;;;;;;;;;;;;;;;;;2137927;53;3538;-69
2021/06/03 04:40:01;;;;;;;;;;;;;;;;;;2135724;58;1920;-69
2021/06/03 04:42:26;;;;;;;;;;;;;;;;;;2133574;59;1972;-69
2021/06/03 04:44:51;;;;;;;;;;;;;;;;;;2132769;67;1497;-69
2021/06/03 04:47:16;;;;;;;;;;;;;;;;;;2133512;59;1560;-69
2021/06/03 04:49:42;;;;;;;;;;;;;;;;;;2137926;66;1565;-69
2021/06/03 04:52:26;;;;;;;;;;;;;;;;;;2137059;66;1557;-69
2021/06/03 04:57:54;;;;;;;;;;;;;;;;;;2131552;59;2135;-69
2021/06/03 05:00:27;;;;;;;;;;;;;;;;;;2130449;59;1777;-69
2021/06/03 05:02:53;;;;;;;;;;;;;;;;;;2135181;66;1993;-69
2021/06/03 05:05:18;;;;;;;;;;;;;;;;;;2132338;59;1606;-69
2021/06/03 05:07:44;;;;;;;;;;;;;;;;;;2132794;59;1757;-69
2021/06/03 05:10:10;;;;;;;;;;;;;;;;;;2131551;59;1505;-70
2021/06/03 05:12:35;;;;;;;;;;;;;;;;;;2132457;59;1672;-70
2021/06/03 05:15:00;;;;;;;;;;;;;;;;;;2132499;59;1526;-69
2021/06/03 05:17:26;;;;;;;;;;;;;;;;;;2133030;66;1662;-70
2021/06/03 05:19:51;;;;;;;;;;;;;;;;;;2133402;59;2064;-70
2021/06/03 05:22:16;;;;;;;;;;;;;;;;;;2134218;66;1527;-70
2021/06/03 05:24:42;;;;;;;;;;;;;;;;;;2136908;66;1985;-70
2021/06/03 05:27:07;;;;;;;;;;;;;;;;;;2134638;67;1225;-70
2021/06/03 05:29:32;;;;;;;;;;;;;;;;;;2135447;59;1363;-69
2021/06/03 05:31:57;;;;;;;;;;;;;;;;;;2134961;67;1181;-70
2021/06/03 05:34:23;;;;;;;;;;;;;;;;;;2135960;59;1976;-70
2021/06/03 05:36:48;;;;;;;;;;;;;;;;;;2134792;59;1230;-70
2021/06/03 05:39:14;;;;;;;;;;;;;;;;;;2137990;66;1297;-70
2021/06/03 05:41:40;;;;;;;;;;;;;;;;;;2133897;59;2171;-69
2021/06/03 05:44:06;;;;;;;;;;;;;;;;;;2134110;59;1932;-70
2021/06/03 05:46:31;;;;;;;;;;;;;;;;;;2131576;67;1257;-69
2021/06/03 05:48:56;;;;;;;;;;;;;;;;;;2130284;67;1313;-69
2021/06/03 05:51:21;;;;;;;;;;;;;;;;;;2131399;67;1370;-69
2021/06/03 05:53:47;;;;;;;;;;;;;;;;;;2131475;67;1047;-70
2021/06/03 05:56:12;;;;;;;;;;;;;;;;;;2131654;67;916;-69
2021/06/03 05:58:37;;;;;;;;;;;;;;;;;;2131249;67;1191;-69
2021/06/03 06:01:02;;;;;;;;;;;;;;;;;;2131263;59;2148;-69
2021/06/03 06:04:19;;;;;;;;;;;;;;;;;;2132536;59;1933;-69
2021/06/03 06:08:42;;;;;;;;;;;;;;;;;;2131124;59;2326;-69
2021/06/03 06:11:08;;;;;;;;;;;;;;;;;;2131852;59;3211;-69
2021/06/03 06:13:33;;;;;;;;;;;;;;;;;;2139460;59;2596;-70
2021/06/03 06:15:59;;;;;;;;;;;;;;;;;;2128578;60;3011;-69
2021/06/03 06:18:24;;;;;;;;;;;;;;;;;;2134100;59;3548;-69
2021/06/03 06:20:49;;;;;;;;;;;;;;;;;;2135515;66;1244;-69
2021/06/03 06:23:16;;;;;;;;;;;;;;;;;;2134493;66;2016;-70
2021/06/03 06:25:42;;;;;;;;;;;;;;;;;;2137237;66;1184;-70
2021/06/03 06:28:08;;;;;;;;;;;;;;;;;;2133507;66;1290;-69
2021/06/03 06:30:33;;;;;;;;;;;;;;;;;;2131392;58;1478;-69
2021/06/03 06:32:58;;;;;;;;;;;;;;;;;;2136452;66;1124;-69
2021/06/03 06:35:23;;;;;;;;;;;;;;;;;;2134337;66;1227;-70
2021/06/03 06:37:49;;;;;;;;;;;;;;;;;;2136500;59;1593;-69
2021/06/03 06:40:14;;;;;;;;;;;;;;;;;;2133176;66;1249;-69
2021/06/03 06:42:39;;;;;;;;;;;;;;;;;;2133367;66;1985;-69
2021/06/03 06:45:05;;;;;;;;;;;;;;;;;;2136548;66;1121;-70
2021/06/03 06:47:31;;;;;;;;;;;;;;;;;;2132855;66;1242;-70
2021/06/03 06:49:56;;;;;;;;;;;;;;;;;;2133494;66;1179;-70
2021/06/03 06:52:22;;;;;;;;;;;;;;;;;;2134001;66;1177;-70
2021/06/03 06:54:47;;;;;;;;;;;;;;;;;;2133479;66;1278;-69
2021/06/03 06:57:12;;;;;;;;;;;;;;;;;;2132562;59;1423;-70
2021/06/03 06:59:38;;;;;;;;;;;;;;;;;;2133848;59;1319;-70
2021/06/03 07:02:03;;;;;;;;;;;;;;;;;;2131948;66;1269;-69
2021/06/03 07:04:28;;;;;;;;;;;;;;;;;;2141044;66;1986;-69
2021/06/03 07:06:53;;;;;;;;;;;;;;;;;;2134412;59;1746;-69
2021/06/03 07:09:19;;;;;;;;;;;;;;;;;;2135581;66;1122;-70
2021/06/03 07:11:44;;;;;;;;;;;;;;;;;;2131273;59;2313;-70
2021/06/03 07:14:09;;;;;;;;;;;;;;;;;;2132528;59;2293;-69
2021/06/03 07:16:34;;;;;;;;;;;;;;;;;;2134029;59;2198;-69
2021/06/03 07:18:59;;;;;;;;;;;;;;;;;;2130580;59;2272;-69
2021/06/03 07:21:24;;;;;;;;;;;;;;;;;;2131354;59;1875;-70
2021/06/03 07:23:50;;;;;;;;;;;;;;;;;;2138322;66;1975;-69
2021/06/03 07:26:15;;;;;;;;;;;;;;;;;;2134079;66;1264;-70
2021/06/03 07:28:40;;;;;;;;;;;;;;;;;;2132473;66;1349;-69
2021/06/03 07:31:06;;;;;;;;;;;;;;;;;;2133672;66;1767;-69
2021/06/03 07:33:31;;;;;;;;;;;;;;;;;;2133904;66;1570;-69
2021/06/03 07:35:56;;;;;;;;;;;;;;;;;;2142318;66;1387;-69
2021/06/03 07:38:23;;;;;;;;;;;;;;;;;;2131534;59;1743;-69
2021/06/03 07:40:48;;;;;;;;;;;;;;;;;;2132494;66;1195;-70
2021/06/03 07:43:13;;;;;;;;;;;;;;;;;;2136257;66;1920;-69
2021/06/03 07:45:39;;;;;;;;;;;;;;;;;;2134057;66;1303;-70
2021/06/03 07:48:05;;;;;;;;;;;;;;;;;;2132277;59;1418;-70
2021/06/03 07:50:31;;;;;;;;;;;;;;;;;;2131563;66;1329;-69
2021/06/03 07:52:56;;;;;;;;;;;;;;;;;;2132962;59;1858;-69
2021/06/03 07:55:22;;;;;;;;;;;;;;;;;;2134500;66;1152;-70
2021/06/03 07:57:51;;;;;;;;;;;;;;;;;;2133347;66;1352;-69
2021/06/03 08:00:17;;;;;;;;;;;;;;;;;;2131801;59;1427;-70
2021/06/03 08:02:43;;;;;;;;;;;;;;;;;;2131697;66;1940;-69
2021/06/03 08:05:10;;;;;;;;;;;;;;;;;;2137442;66;1419;-69
2021/06/03 08:07:35;;;;;;;;;;;;;;;;;;2134530;66;1167;-70
2021/06/03 08:10:01;;;;;;;;;;;;;;;;;;2138701;66;1600;-70
2021/06/03 08:12:26;;;;;;;;;;;;;;;;;;2132253;59;2832;-70
2021/06/03 08:14:51;;;;;;;;;;;;;;;;;;2136100;59;2224;-69
2021/06/03 08:17:16;;;;;;;;;;;;;;;;;;2137949;66;1444;-69
2021/06/03 08:19:41;;;;;;;;;;;;;;;;;;2130822;62;2287;-69
2021/06/03 08:22:07;;;;;;;;;;;;;;;;;;2132512;66;1151;-70
2021/06/03 08:24:32;;;;;;;;;;;;;;;;;;2135414;59;1962;-69
2021/06/03 08:26:57;;;;;;;;;;;;;;;;;;2134666;66;1405;-69
2021/06/03 08:29:22;;;;;;;;;;;;;;;;;;2135485;66;1662;-71
2021/06/03 08:31:48;;;;;;;;;;;;;;;;;;2134752;66;1243;-71
2021/06/03 08:34:14;;;;;;;;;;;;;;;;;;2136086;66;1118;-71
2021/06/03 08:36:39;;;;;;;;;;;;;;;;;;2136839;66;1323;-70
2021/06/03 08:39:05;;;;;;;;;;;;;;;;;;2132689;59;1139;-68
2021/06/03 08:41:34;;;;;;;;;;;;;;;;;;2132847;66;1123;-68
2021/06/03 08:44:01;;;;;;;;;;;;;;;;;;2133076;66;1939;-68
2021/06/03 08:46:26;;;;;;;;;;;;;;;;;;2134935;66;1215;-68
2021/06/03 08:48:52;;;;;;;;;;;;;;;;;;2134215;66;1440;-69
2021/06/03 08:51:17;;;;;;;;;;;;;;;;;;2135057;66;1289;-68
2021/06/03 08:53:42;;;;;;;;;;;;;;;;;;2129826;66;1231;-68
2021/06/03 08:56:19;;;;;;;;;;;;;;;;;;2130350;66;1126;-71
2021/06/03 08:58:47;;;;;;;;;;;;;;;;;;2133837;66;1294;-68
2021/06/03 09:01:13;;;;;;;;;;;;;;;;;;2131806;59;1325;-68
2021/06/03 09:03:39;;;;;;;;;;;;;;;;;;2133970;66;1913;-68
2021/06/03 09:06:04;;;;;;;;;;;;;;;;;;2131945;66;1303;-68
2021/06/03 09:08:31;;;;;;;;;;;;;;;;;;2134085;59;1269;-69
2021/06/03 09:11:01;;;;;;;;;;;;;;;;;;2131558;59;1831;-69
2021/06/03 09:13:29;;;;;;;;;;;;;;;;;;2130516;59;2245;-69
2021/06/03 09:15:56;;;;;;;;;;;;;;;;;;2131525;59;2324;-68
2021/06/03 09:18:30;;;;;;;;;;;;;;;;;;2138680;66;1300;-68
2021/06/03 09:20:55;;;;;;;;;;;;;;;;;;2131317;59;2700;-68
2021/06/03 09:23:31;;;;;;;;;;;;;;;;;;2133043;66;1935;-69
2021/06/03 09:25:57;;;;;;;;;;;;;;;;;;2131292;66;1155;-69
2021/06/03 09:28:30;;;;;;;;;;;;;;;;;;2134411;66;1226;-69
2021/06/03 09:31:06;;;;;;;;;;;;;;;;;;2130180;66;2044;-68
2021/06/03 09:33:38;;;;;;;;;;;;;;;;;;2143349;66;1270;-68
2021/06/03 09:36:05;;;;;;;;;;;;;;;;;;2143814;66;1214;-68
2021/06/03 09:38:30;;;;;;;;;;;;;;;;;;2139971;66;1251;-68
2021/06/03 09:40:55;;;;;;;;;;;;;;;;;;2132259;66;1362;-68
2021/06/03 09:43:21;;;;;;;;;;;;;;;;;;2131566;66;1999;-70
2021/06/03 09:45:52;;;;;;;;;;;;;;;;;;2135109;66;1216;-70
2021/06/03 09:48:36;;;;;;;;;;;;;;;;;;2137578;59;1284;-70
2021/06/03 09:51:16;;;;;;;;;;;;;;;;;;2139463;66;1084;-67
2021/06/03 09:53:54;;;;;;;;;;;;;;;;;;2138321;66;1103;-68
2021/06/03 09:56:26;;;;;;;;;;;;;;;;;;2139401;66;1148;-68
2021/06/03 09:58:52;;;;;;;;;;;;;;;;;;2132970;66;1306;-68
2021/06/03 10:01:36;;;;;;;;;;;;;;;;;;2128903;59;1272;-68
2021/06/03 10:04:01;;;;;;;;;;;;;;;;;;2138891;66;1932;-68
2021/06/03 10:06:26;;;;;;;;;;;;;;;;;;2133948;66;1252;-68
2021/06/03 10:08:52;;;;;;;;;;;;;;;;;;2132585;66;1244;-68
2021/06/03 10:11:36;;;;;;;;;;;;;;;;;;2131084;59;2023;-69
2021/06/03 10:14:08;;;;;;;;;;;;;;;;;;2132316;59;2243;-69
2021/06/03 10:16:33;;;;;;;;;;;;;;;;;;2129969;59;2619;-69
2021/06/03 10:19:17;;;;;;;;;;;;;;;;;;2132158;66;2228;-68
2021/06/03 10:21:43;;;;;;;;;;;;;;;;;;2132536;59;2389;-68
2021/06/03 10:24:08;;;;;;;;;;;;;;;;;;2141429;66;1994;-68
2021/06/03 10:26:52;;;;;;;;;;;;;;;;;;2137336;66;1166;-68
2021/06/03 10:29:17;;;;;;;;;;;;;;;;;;2138210;59;1286;-69
2021/06/03 10:31:44;;;;;;;;;;;;;;;;;;2130580;66;1125;-69
2021/06/03 10:34:09;;;;;;;;;;;;;;;;;;2136527;66;1244;-68
2021/06/03 10:36:35;;;;;;;;;;;;;;;;;;2133873;66;1256;-68
2021/06/03 10:39:00;;;;;;;;;;;;;;;;;;2141038;53;3836;-70
2021/06/03 10:41:25;;;;;;;;;;;;;;;;;;2141027;59;1448;-69
2021/06/03 10:43:51;;;;;;;;;;;;;;;;;;2145027;59;1993;-69
2021/06/03 10:46:16;;;;;;;;;;;;;;;;;;2144553;66;1224;-70
2021/06/03 10:48:41;;;;;;;;;;;;;;;;;;2142399;66;1424;-69
2021/06/03 10:51:08;;;;;;;;;;;;;;;;;;2140033;66;1131;-69
2021/06/03 10:53:34;;;;;;;;;;;;;;;;;;2140656;66;1211;-68
2021/06/03 10:56:27;;;;;;;;;;;;;;;;;;2138754;59;1302;-69
2021/06/03 10:58:53;;;;;;;;;;;;;;;;;;2138688;66;1964;-69
2021/06/03 11:01:19;;;;;;;;;;;;;;;;;;2138253;59;1255;-68
2021/06/03 11:03:48;;;;;;;;;;;;;;;;;;2141808;66;2000;-69
2021/06/03 11:06:17;;;;;;;;;;;;;;;;;;2141183;66;1165;-69
2021/06/03 11:08:43;;;;;;;;;;;;;;;;;;2139883;59;1692;-69
2021/06/03 11:11:08;;;;;;;;;;;;;;;;;;2140516;66;1750;-68
2021/06/03 11:13:33;;;;;;;;;;;;;;;;;;2139972;59;1262;-69
2021/06/03 11:16:01;;;;;;;;;;;;;;;;;;2138319;59;2787;-69
2021/06/03 11:18:45;;;;;;;;;;;;;;;;;;2134744;59;2584;-69
2021/06/03 11:21:28;;;;;;;;;;;;;;;;;;2138579;66;2339;-67
2021/06/03 11:23:54;;;;;;;;;;;;;;;;;;2139110;59;2716;-68
2021/06/03 11:26:40;;;;;;;;;;;;;;;;;;2141209;66;1346;-69
2021/06/03 11:29:24;;;;;;;;;;;;;;;;;;2136325;67;1368;-68
2021/06/03 11:32:02;;;;;;;;;;;;;;;;;;2139169;66;1304;-70
2021/06/03 11:34:48;;;;;;;;;;;;;;;;;;2140563;66;1221;-70
2021/06/03 11:37:18;;;;;;;;;;;;;;;;;;2139874;67;1640;-69
2021/06/03 11:39:43;;;;;;;;;;;;;;;;;;2139086;59;1306;-70
2021/06/03 11:42:29;;;;;;;;;;;;;;;;;;2140501;59;1914;-68
2021/06/03 11:45:04;;;;;;;;;;;;;;;;;;2140600;67;1931;-69
2021/06/03 11:47:30;;;;;;;;;;;;;;;;;;2140081;59;1530;-68
2021/06/03 11:49:55;;;;;;;;;;;;;;;;;;2139402;67;1540;-68
2021/06/03 11:52:20;;;;;;;;;;;;;;;;;;2142539;67;1499;-69
2021/06/03 11:54:59;;;;;;;;;;;;;;;;;;2137150;67;1526;-68
2021/06/03 11:57:25;;;;;;;;;;;;;;;;;;2140023;67;1550;-67
2021/06/03 11:59:53;;;;;;;;;;;;;;;;;;2137296;59;1741;-69
2021/06/03 12:02:37;;;;;;;;;;;;;;;;;;2138686;67;1676;-69
2021/06/03 12:07:50;;;;;;;;;;;;;;;;;;2140273;59;1627;-69
2021/06/03 12:10:20;;;;;;;;;;;;;;;;;;2138802;67;1783;-67
2021/06/03 12:12:45;;;;;;;;;;;;;;;;;;2140285;67;1542;-70
2021/06/03 12:15:21;;;;;;;;;;;;;;;;;;2139507;59;1550;-69
2021/06/03 12:17:46;;;;;;;;;;;;;;;;;;2136011;59;3371;-68
2021/06/03 12:20:13;;;;;;;;;;;;;;;;;;2137810;67;1419;-68
2021/06/03 12:22:38;;;;;;;;;;;;;;;;;;2138013;59;3385;-68
2021/06/03 12:25:04;;;;;;;;;;;;;;;;;;2135319;67;3323;-69
2021/06/03 12:27:33;;;;;;;;;;;;;;;;;;2138455;67;1666;-69
2021/06/03 12:30:17;;;;;;;;;;;;;;;;;;2140952;59;1661;-67
2021/06/03 12:32:58;;;;;;;;;;;;;;;;;;2140284;67;1922;-69
2021/06/03 12:35:30;;;;;;;;;;;;;;;;;;2139219;67;1721;-67
2021/06/03 12:37:55;;;;;;;;;;;;;;;;;;2136785;67;1960;-70
2021/06/03 12:40:22;;;;;;;;;;;;;;;;;;2140517;67;1419;-70
2021/06/03 12:42:47;;;;;;;;;;;;;;;;;;2137816;66;1939;-69
2021/06/03 12:45:12;;;;;;;;;;;;;;;;;;2140505;66;1443;-70
2021/06/03 12:47:38;;;;;;;;;;;;;;;;;;2140186;66;1759;-70
2021/06/03 12:50:17;;;;;;;;;;;;;;;;;;2140102;67;1700;-68
2021/06/03 12:52:45;;;;;;;;;;;;;;;;;;2142527;66;1334;-70
2021/06/03 12:55:11;;;;;;;;;;;;;;;;;;2139735;59;2130;-70
2021/06/03 12:57:36;;;;;;;;;;;;;;;;;;2139767;66;1935;-69
2021/06/03 13:00:03;;;;;;;;;;;;;;;;;;2138545;59;2001;-67
2021/06/03 13:02:30;;;;;;;;;;;;;;;;;;2138978;59;2235;-70
2021/06/03 13:04:56;;;;;;;;;;;;;;;;;;2140330;66;2410;-68
2021/06/03 13:07:28;;;;;;;;;;;;;;;;;;2138791;59;2410;-71
2021/06/03 13:10:01;;;;;;;;;;;;;;;;;;2141146;66;1728;-69
2021/06/03 13:12:26;;;;;;;;;;;;;;;;;;2141255;66;1368;-69
2021/06/03 13:14:53;;;;;;;;;;;;;;;;;;2140727;59;1298;-70
2021/06/03 13:17:22;;;;;;;;;;;;;;;;;;2140304;60;2303;-68
2021/06/03 13:19:49;;;;;;;;;;;;;;;;;;2138204;59;2274;-69
2021/06/03 13:22:15;;;;;;;;;;;;;;;;;;2139244;66;1365;-69
2021/06/03 13:24:44;;;;;;;;;;;;;;;;;;2138749;59;2667;-69
2021/06/03 13:27:12;;;;;;;;;;;;;;;;;;2138097;59;2379;-70
2021/06/03 13:29:39;;;;;;;;;;;;;;;;;;2139818;66;1335;-70
2021/06/03 13:32:04;;;;;;;;;;;;;;;;;;2138994;66;1054;-70
2021/06/03 13:34:32;;;;;;;;;;;;;;;;;;2139867;59;1976;-69
2021/06/03 13:37:05;;;;;;;;;;;;;;;;;;2137642;59;2016;-70
2021/06/03 13:39:32;;;;;;;;;;;;;;;;;;2139389;59;1908;-71
2021/06/03 13:41:57;;;;;;;;;;;;;;;;;;2139775;59;1777;-69
2021/06/03 13:44:24;;;;;;;;;;;;;;;;;;2138077;59;1931;-69
2021/06/03 13:46:49;;;;;;;;;;;;;;;;;;2139899;59;1848;-70
2021/06/03 13:49:24;;;;;;;;;;;;;;;;;;2139040;59;1873;-67
2021/06/03 13:52:00;;;;;;;;;;;;;;;;;;2139901;59;1873;-69
2021/06/03 13:54:26;;;;;;;;;;;;;;;;;;2141182;66;1487;-68
2021/06/03 13:56:51;;;;;;;;;;;;;;;;;;2140159;66;1672;-71
2021/06/03 13:59:16;;;;;;;;;;;;;;;;;;2141519;66;1673;-70
2021/06/03 14:01:43;;;;;;;;;;;;;;;;;;2137948;59;1231;-69
2021/06/03 14:04:10;;;;;;;;;;;;;;;;;;2139419;59;1997;-68
2021/06/03 14:06:45;;;;;;;;;;;;;;;;;;2138847;59;1882;-69
2021/06/03 14:09:17;;;;;;;;;;;;;;;;;;2138301;59;2078;-70
2021/06/03 14:11:49;;;;;;;;;;;;;;;;;;2133721;59;2110;-71
2021/06/03 14:14:22;;;;;;;;;;;;;;;;;;2133815;59;1919;-69
2021/06/03 14:16:49;;;;;;;;;;;;;;;;;;2141009;59;1843;-68
2021/06/03 14:19:19;;;;;;;;;;;;;;;;;;2134910;59;2405;-68
2021/06/03 14:21:52;;;;;;;;;;;;;;;;;;2139045;66;2189;-70
2021/06/03 14:24:22;;;;;;;;;;;;;;;;;;2140279;59;2384;-68
2021/06/03 14:26:47;;;;;;;;;;;;;;;;;;2139758;66;2300;-69
2021/06/03 14:29:12;;;;;;;;;;;;;;;;;;2138790;59;1254;-68
2021/06/03 14:31:45;;;;;;;;;;;;;;;;;;2138913;66;1162;-69
2021/06/03 14:34:24;;;;;;;;;;;;;;;;;;2141728;66;1148;-68
2021/06/03 14:36:57;;;;;;;;;;;;;;;;;;2137066;66;1231;-70
2021/06/03 14:39:39;;;;;;;;;;;;;;;;;;2141018;59;1976;-70
2021/06/03 14:42:05;;;;;;;;;;;;;;;;;;2140481;66;1306;-71
2021/06/03 14:44:30;;;;;;;;;;;;;;;;;;2140376;59;2026;-69
2021/06/03 14:46:55;;;;;;;;;;;;;;;;;;2137942;59;2034;-70
2021/06/03 14:49:21;;;;;;;;;;;;;;;;;;2137819;59;2083;-71
2021/06/03 14:51:47;;;;;;;;;;;;;;;;;;2133770;59;1896;-67
2021/06/03 14:54:12;;;;;;;;;;;;;;;;;;2137662;59;1926;-70
2021/06/03 14:56:37;;;;;;;;;;;;;;;;;;2140171;59;1821;-67
2021/06/03 14:59:02;;;;;;;;;;;;;;;;;;2137272;59;2163;-70
2021/06/03 15:01:27;;;;;;;;;;;;;;;;;;2135763;59;2182;-68
2021/06/03 15:03:53;;;;;;;;;;;;;;;;;;2137757;59;1960;-68
2021/06/03 15:06:18;;;;;;;;;;;;;;;;;;2133218;59;2409;-71
2021/06/03 15:08:43;;;;;;;;;;;;;;;;;;2137970;59;2536;-69
2021/06/03 15:11:08;;;;;;;;;;;;;;;;;;2139621;59;2004;-68
2021/06/03 15:13:34;;;;;;;;;;;;;;;;;;2137910;59;1934;-69
2021/06/03 15:16:00;;;;;;;;;;;;;;;;;;2135143;59;1994;-69
2021/06/03 15:18:25;;;;;;;;;;;;;;;;;;2134387;59;2091;-68
2021/06/03 15:20:52;;;;;;;;;;;;;;;;;;2136702;66;3050;-69
2021/06/03 15:23:18;;;;;;;;;;;;;;;;;;2137946;59;2153;-69
2021/06/03 15:25:43;;;;;;;;;;;;;;;;;;2138278;66;2388;-66
2021/06/03 15:28:09;;;;;;;;;;;;;;;;;;2134090;59;2327;-68
2021/06/03 15:30:37;;;;;;;;;;;;;;;;;;2136360;59;1864;-69
2021/06/03 15:33:03;;;;;;;;;;;;;;;;;;2137343;59;2163;-70
2021/06/03 15:35:29;;;;;;;;;;;;;;;;;;2139652;66;1537;-70
2021/06/03 15:37:55;;;;;;;;;;;;;;;;;;2136952;59;1992;-68
2021/06/03 15:40:20;;;;;;;;;;;;;;;;;;2138540;59;1897;-68
2021/06/03 15:42:46;;;;;;;;;;;;;;;;;;2135372;59;2456;-68
2021/06/03 15:45:12;;;;;;;;;;;;;;;;;;2137210;59;2323;-68
2021/06/03 15:47:38;;;;;;;;;;;;;;;;;;2138427;59;2172;-69
2021/06/03 15:50:04;;;;;;;;;;;;;;;;;;2138375;59;1850;-67
2021/06/03 15:52:29;;;;;;;;;;;;;;;;;;2140797;67;1792;-68
2021/06/03 15:54:55;;;;;;;;;;;;;;;;;;2139554;59;2408;-66
2021/06/03 15:57:20;;;;;;;;;;;;;;;;;;2141250;67;1738;-66
2021/06/03 15:59:45;;;;;;;;;;;;;;;;;;2140281;59;1811;-66
2021/06/03 16:02:10;;;;;;;;;;;;;;;;;;2139339;67;1527;-71
2021/06/03 16:04:37;;;;;;;;;;;;;;;;;;2140263;67;1952;-66
2021/06/03 16:07:03;;;;;;;;;;;;;;;;;;2141108;67;1534;-69
2021/06/03 16:09:28;;;;;;;;;;;;;;;;;;2138961;67;2129;-69
2021/06/03 16:11:53;;;;;;;;;;;;;;;;;;2140114;67;1476;-68
2021/06/03 16:14:18;;;;;;;;;;;;;;;;;;2139670;67;2376;-67
2021/06/03 16:16:43;;;;;;;;;;;;;;;;;;2140588;59;1274;-69
2021/06/03 16:19:09;;;;;;;;;;;;;;;;;;2140865;59;2026;-68
2021/06/03 16:21:34;;;;;;;;;;;;;;;;;;2137364;59;2923;-69
2021/06/03 16:23:59;;;;;;;;;;;;;;;;;;2140972;59;2061;-70
2021/06/03 16:26:25;;;;;;;;;;;;;;;;;;2137060;67;1228;-68
2021/06/03 16:28:51;;;;;;;;;;;;;;;;;;2141339;59;1302;-69
2021/06/03 16:31:16;;;;;;;;;;;;;;;;;;2137085;59;1920;-68
2021/06/03 16:33:42;;;;;;;;;;;;;;;;;;2135901;59;2307;-70
2021/06/03 16:36:08;;;;;;;;;;;;;;;;;;2140363;66;1474;-67
2021/06/03 16:38:33;;;;;;;;;;;;;;;;;;2137785;59;2516;-68
2021/06/03 16:40:58;;;;;;;;;;;;;;;;;;2141759;59;2965;-69
2021/06/03 16:43:25;;;;;;;;;;;;;;;;;;2140810;59;1926;-68
2021/06/03 16:45:51;;;;;;;;;;;;;;;;;;2140351;66;1301;-68
2021/06/03 16:48:17;;;;;;;;;;;;;;;;;;2139067;59;1335;-69
2021/06/03 16:50:42;;;;;;;;;;;;;;;;;;2136691;59;1694;-71
2021/06/03 16:53:08;;;;;;;;;;;;;;;;;;2141601;66;1357;-68
2021/06/03 16:55:34;;;;;;;;;;;;;;;;;;2140556;66;1660;-68
2021/06/03 16:57:59;;;;;;;;;;;;;;;;;;2140847;66;1795;-71
2021/06/03 17:00:27;;;;;;;;;;;;;;;;;;2138553;59;1454;-70
2021/06/03 17:02:53;;;;;;;;;;;;;;;;;;2141657;66;1190;-68
2021/06/03 17:05:18;;;;;;;;;;;;;;;;;;2143081;59;1932;-70
2021/06/03 17:07:44;;;;;;;;;;;;;;;;;;2138669;59;1452;-71
2021/06/03 17:10:09;;;;;;;;;;;;;;;;;;2140697;66;1544;-68
2021/06/03 17:12:35;;;;;;;;;;;;;;;;;;2141299;66;1164;-68